createdAt,value
2023-12-02T00:04:30.216Z,97130.14
2023-12-02T00:09:37.453Z,97135.48
2023-12-02T00:14:44.690Z,97133.69
2023-12-02T00:19:51.708Z,97127.20
2023-12-02T00:24:59.019Z,97119.42
2023-12-02T00:30:06.606Z,97126.17
2023-12-02T00:35:13.737Z,97117.19
2023-12-02T00:40:20.887Z,97109.29
2023-12-02T00:45:27.998Z,97074.60
2023-12-02T00:50:35.276Z,97085.38
2023-12-02T00:55:42.276Z,97084.74
2023-12-02T01:00:49.617Z,97121.36
2023-12-02T01:05:56.674Z,97123.86
2023-12-02T01:11:04.373Z,97114.63
2023-12-02T01:16:12.171Z,97111.92
2023-12-02T01:21:19.128Z,97092.48
2023-12-02T01:26:26.378Z,97091.55
2023-12-02T01:31:33.392Z,97074.75
2023-12-02T01:36:41.428Z,97038.29
2023-12-02T01:41:48.759Z,97059.58
2023-12-02T01:46:55.878Z,97058.49
2023-12-02T01:52:03.014Z,97055.71
2023-12-02T01:57:10.592Z,97043.54
2023-12-02T02:02:17.783Z,97040.38
2023-12-02T02:07:25.280Z,97048.88
2023-12-02T02:12:32.432Z,97067.76
2023-12-02T02:17:39.570Z,97059.55
2023-12-02T02:22:46.741Z,97059.48
2023-12-02T02:27:54.124Z,97038.89
2023-12-02T02:33:01.607Z,97041.67
2023-12-02T02:38:08.740Z,97032.61
2023-12-02T02:43:15.831Z,97041.20
2023-12-02T02:48:23.172Z,97045.08
2023-12-02T02:53:30.123Z,97054.13
2023-12-02T02:58:38.336Z,97038.73
2023-12-02T03:03:45.538Z,97044.31
2023-12-02T03:08:52.752Z,97053.74
2023-12-02T03:13:59.846Z,97018.97
2023-12-02T03:19:06.902Z,97041.65
2023-12-02T03:24:13.967Z,97060.95
2023-12-02T03:29:21.198Z,97058.23
2023-12-02T03:34:28.278Z,97043.98
2023-12-02T03:39:35.265Z,97051.58
2023-12-02T03:44:42.588Z,97042.97
2023-12-02T03:49:49.474Z,97030.27
2023-12-02T03:54:56.416Z,97022.46
2023-12-02T04:00:13.157Z,97041.11
2023-12-02T04:05:20.447Z,97038.48
2023-12-02T04:10:27.509Z,97033.77
2023-12-02T04:15:34.821Z,97046.00
2023-12-02T04:20:42.080Z,97014.16
2023-12-02T04:25:49.158Z,97014.09
2023-12-02T04:30:56.142Z,97013.78
2023-12-02T04:36:03.198Z,97011.45
2023-12-02T04:41:10.507Z,97011.98
2023-12-02T04:46:17.544Z,97013.69
2023-12-02T04:51:24.786Z,97004.63
2023-12-02T04:56:31.835Z,97009.73
2023-12-02T05:01:38.675Z,96982.34
2023-12-02T05:06:45.908Z,96981.23
2023-12-02T05:11:53.823Z,96994.02
2023-12-02T05:17:00.696Z,97001.30
2023-12-02T05:22:07.911Z,97006.48
2023-12-02T05:27:15.108Z,96980.70
2023-12-02T05:32:22.022Z,96961.04
2023-12-02T05:37:29.147Z,96992.62
2023-12-02T05:42:36.342Z,96998.97
2023-12-02T05:47:43.503Z,97000.60
2023-12-02T05:52:50.644Z,96986.20
2023-12-02T05:57:57.825Z,96999.27
2023-12-02T06:03:05.114Z,96996.80
2023-12-02T06:08:12.522Z,96982.64
2023-12-02T06:13:19.489Z,96990.52
2023-12-02T06:18:26.741Z,96966.83
2023-12-02T06:23:34.044Z,96975.05
2023-12-02T06:28:41.404Z,96975.59
2023-12-02T06:33:48.619Z,96956.23
2023-12-02T06:38:58.932Z,96975.17
2023-12-02T06:44:07.951Z,96983.77
2023-12-02T06:49:15.304Z,96988.66
2023-12-02T06:54:22.515Z,97008.15
2023-12-02T06:59:29.732Z,97010.09
2023-12-02T07:04:36.946Z,97002.97
2023-12-02T07:09:44.235Z,96990.41
2023-12-02T07:14:51.690Z,96989.64
2023-12-02T07:19:58.902Z,96994.14
2023-12-02T07:25:06.280Z,97010.39
2023-12-02T07:35:24.312Z,97009.38
2023-12-02T07:40:31.712Z,97042.54
2023-12-02T07:45:39.290Z,97049.00
2023-12-02T07:50:46.269Z,97061.08
2023-12-02T07:55:53.681Z,97055.52
2023-12-02T08:01:00.840Z,97042.98
2023-12-02T08:06:08.377Z,97043.51
2023-12-02T08:11:15.633Z,97044.60
2023-12-02T08:16:22.680Z,97029.73
2023-12-02T08:21:29.586Z,97009.85
2023-12-02T08:26:36.713Z,97026.57
2023-12-02T08:31:43.906Z,97023.79
2023-12-02T08:36:50.889Z,97019.77
2023-12-02T08:41:57.877Z,97030.13
2023-12-02T08:47:04.914Z,97041.27
2023-12-02T08:52:12.083Z,97027.33
2023-12-02T08:57:19.351Z,97004.89
2023-12-02T09:02:27.192Z,97022.70
2023-12-02T09:07:34.546Z,97037.95
2023-12-02T09:12:41.685Z,97055.52
2023-12-02T09:18:01.831Z,97070.99
2023-12-02T09:23:09.632Z,97058.16
2023-12-02T09:28:20.423Z,97063.58
2023-12-02T09:33:27.920Z,97048.09
2023-12-02T09:38:35.387Z,97031.76
2023-12-02T09:43:49.486Z,97006.98
2023-12-02T09:49:07.576Z,97009.30
2023-12-02T09:54:18.740Z,97034.64
2023-12-02T09:59:30.030Z,97022.92
2023-12-02T10:04:45.103Z,97031.00
2023-12-02T10:09:57.697Z,97025.58
2023-12-02T10:15:07.348Z,97028.82
2023-12-02T10:20:15.567Z,97026.02
2023-12-02T10:25:30.654Z,97011.64
2023-12-02T10:30:39.870Z,96992.69
2023-12-02T10:35:48.818Z,96988.80
2023-12-02T10:41:00.274Z,96976.41
2023-12-02T10:46:09.229Z,96982.77
2023-12-02T10:51:17.328Z,96991.04
2023-12-02T10:56:25.253Z,96999.41
2023-12-02T11:01:36.719Z,96990.66
2023-12-02T11:06:47.301Z,97005.37
2023-12-02T11:11:59.235Z,96967.05
2023-12-02T11:17:17.966Z,96976.04
2023-12-02T11:22:36.907Z,96977.90
2023-12-02T11:27:48.350Z,96963.73
2023-12-02T11:33:02.952Z,96944.92
2023-12-02T11:38:17.308Z,96974.11
2023-12-02T11:43:32.909Z,96977.45
2023-12-02T11:48:45.128Z,96981.06
2023-12-02T11:54:03.176Z,96966.83
2023-12-02T11:59:18.835Z,96961.02
2023-12-02T12:04:50.049Z,96961.31
2023-12-02T12:10:05.791Z,96960.40
2023-12-02T12:15:13.502Z,96957.39
2023-12-02T12:20:21.044Z,96952.50
2023-12-02T12:25:31.845Z,96942.29
2023-12-02T12:30:48.838Z,96953.58
2023-12-02T12:35:56.352Z,96956.42
2023-12-02T12:41:04.103Z,96964.94
2023-12-02T12:46:13.833Z,96961.16
2023-12-02T12:51:21.773Z,96939.70
2023-12-02T12:56:30.713Z,96927.48
2023-12-02T13:01:40.631Z,96949.46
2023-12-02T13:06:50.561Z,96977.16
2023-12-02T13:12:00.360Z,96966.23
2023-12-02T13:17:07.833Z,96968.72
2023-12-02T13:22:16.237Z,96970.33
2023-12-02T13:27:29.884Z,96959.95
2023-12-02T13:32:38.784Z,96948.10
2023-12-02T13:37:56.981Z,96958.11
2023-12-02T13:43:08.340Z,96963.35
2023-12-02T13:48:18.280Z,96972.02
2023-12-02T13:53:31.231Z,96955.99
2023-12-02T13:58:41.730Z,96945.48
2023-12-02T14:03:56.130Z,96974.73
2023-12-02T14:09:08.918Z,96978.83
2023-12-02T14:14:27.300Z,96996.31
2023-12-02T14:19:48.384Z,96979.30
2023-12-02T14:25:08.260Z,97015.50
2023-12-02T14:30:27.701Z,96995.15
2023-12-02T14:35:45.603Z,96982.77
2023-12-02T14:41:00.524Z,96980.83
2023-12-02T14:46:08.099Z,96959.16
2023-12-02T14:51:16.956Z,96951.63
2023-12-02T14:56:43.450Z,96958.75
2023-12-02T15:01:53.066Z,96957.60
2023-12-02T15:07:00.243Z,96971.15
2023-12-02T15:12:08.774Z,96981.59
2023-12-02T15:17:16.094Z,96996.98
2023-12-02T15:22:23.471Z,97003.34
2023-12-02T15:27:31.710Z,97006.87
2023-12-02T15:32:39.523Z,96993.71
2023-12-02T15:37:48.782Z,96972.50
2023-12-02T15:42:56.039Z,96956.40
2023-12-02T15:48:03.556Z,96977.60
2023-12-02T15:53:11.027Z,97023.52
2023-12-02T15:58:18.361Z,97032.92
2023-12-02T16:03:25.986Z,97016.52
2023-12-02T16:08:34.872Z,97048.48
2023-12-02T16:13:42.252Z,97010.02
2023-12-02T16:18:49.683Z,97052.25
2023-12-02T16:23:57.121Z,97057.45
2023-12-02T16:29:04.298Z,97073.00
2023-12-02T16:34:11.493Z,97075.48
2023-12-02T16:39:20.009Z,97053.64
2023-12-02T16:44:27.210Z,97042.52
2023-12-02T16:49:34.276Z,97002.89
2023-12-02T16:54:41.459Z,96985.72
2023-12-02T16:59:51.167Z,97009.70
2023-12-02T17:04:58.222Z,96980.06
2023-12-02T17:10:11.500Z,97001.55
2023-12-02T17:15:29.303Z,97086.84
2023-12-02T17:20:37.444Z,97157.10
2023-12-02T17:25:56.224Z,97163.89
2023-12-02T17:31:04.023Z,97181.08
2023-12-02T17:36:11.800Z,97177.35
2023-12-02T17:41:18.969Z,97120.23
2023-12-02T17:46:26.259Z,97059.24
2023-12-02T17:51:33.038Z,97081.34
2023-12-02T17:56:40.473Z,97095.71
2023-12-02T18:01:47.684Z,97131.07
2023-12-02T18:06:54.845Z,97148.31
2023-12-02T18:12:01.902Z,97179.35
2023-12-02T18:17:09.112Z,97212.70
2023-12-02T18:22:18.943Z,97219.11
2023-12-02T18:27:26.103Z,97217.65
2023-12-02T18:32:33.336Z,97223.14
2023-12-02T18:37:40.477Z,97228.15
2023-12-02T18:42:47.685Z,97237.02
2023-12-02T18:47:54.765Z,97247.39
2023-12-02T18:53:02.124Z,97264.89
2023-12-02T18:58:09.212Z,97280.91
2023-12-02T19:03:16.224Z,97290.33
2023-12-02T19:08:23.257Z,97293.89
2023-12-02T19:13:31.598Z,97303.32
2023-12-02T19:18:38.817Z,97308.25
2023-12-02T19:23:46.006Z,97313.52
2023-12-02T19:28:52.876Z,97317.02
2023-12-02T19:34:00.837Z,97326.92
2023-12-02T19:39:08.084Z,97339.29
2023-12-02T19:44:14.977Z,97347.80
2023-12-02T19:49:22.259Z,97363.27
2023-12-02T19:54:29.258Z,97373.63
2023-12-02T19:59:36.197Z,97381.12
2023-12-02T20:04:43.341Z,97387.99
2023-12-02T20:09:50.620Z,97399.81
2023-12-02T20:14:57.617Z,97411.72
2023-12-02T20:20:05.585Z,97423.80
2023-12-02T20:25:13.137Z,97427.44
2023-12-02T20:30:20.596Z,97438.10
2023-12-02T20:35:27.665Z,97443.67
2023-12-02T20:40:34.638Z,97451.33
2023-12-02T20:45:41.860Z,97458.37
2023-12-02T20:50:49.325Z,97465.17
2023-12-02T20:55:56.294Z,97469.25
2023-12-02T21:01:03.206Z,97482.27
2023-12-02T21:06:11.082Z,97495.48
2023-12-02T21:11:18.159Z,97503.45
2023-12-02T21:16:24.934Z,97519.84
2023-12-02T21:21:32.200Z,97527.79
2023-12-02T21:26:39.472Z,97536.77
2023-12-02T21:31:46.440Z,97544.21
2023-12-02T21:36:53.779Z,97551.77
2023-12-02T21:42:01.157Z,97564.00
2023-12-02T21:47:15.800Z,97576.59
2023-12-02T21:52:22.796Z,97603.67
2023-12-02T21:57:30.169Z,97610.92
2023-12-02T22:02:38.394Z,97623.69
2023-12-02T22:07:45.551Z,97627.41
2023-12-02T22:12:52.638Z,97637.31
2023-12-02T22:18:01.266Z,97637.66
2023-12-02T22:23:12.456Z,97641.59
2023-12-02T22:28:20.581Z,97643.34
2023-12-02T22:33:28.410Z,97651.88
2023-12-02T22:38:38.776Z,97668.50
2023-12-02T22:43:46.557Z,97680.67
2023-12-02T22:48:54.202Z,97687.86
2023-12-02T22:54:01.468Z,97702.63
2023-12-02T22:59:09.921Z,97710.42
2023-12-02T23:04:27.106Z,97710.90
2023-12-02T23:09:44.077Z,97715.48
2023-12-02T23:14:56.875Z,97717.38
2023-12-02T23:20:11.036Z,97721.79
2023-12-02T23:25:20.228Z,97729.91
2023-12-02T23:30:28.153Z,97738.63
2023-12-02T23:35:37.338Z,97747.14
2023-12-02T23:40:47.726Z,97747.98
2023-12-02T23:45:54.987Z,97751.74
2023-12-02T23:51:02.028Z,97756.92
2023-12-02T23:56:10.173Z,97775.95
